createdAt,value
2023-10-27T00:04:21.057Z,99196.34
2023-10-27T00:09:22.731Z,99193.84
2023-10-27T00:14:25.378Z,99200.59
2023-10-27T00:19:26.979Z,99181.34
2023-10-27T00:24:28.636Z,99185.03
2023-10-27T00:29:30.135Z,99189.22
2023-10-27T00:34:31.776Z,99184.13
2023-10-27T00:39:33.332Z,99179.34
2023-10-27T00:44:35.927Z,99187.59
2023-10-27T00:49:37.601Z,99177.16
2023-10-27T00:54:40.707Z,99171.66
2023-10-27T00:59:43.159Z,99174.25
2023-10-27T01:04:44.915Z,99174.59
2023-10-27T01:09:46.695Z,99179.06
2023-10-27T01:14:48.420Z,99164.50
2023-10-27T01:19:50.067Z,99160.28
2023-10-27T01:24:51.857Z,99157.66
2023-10-27T01:29:53.410Z,99156.38
2023-10-27T01:34:54.990Z,99164.78
2023-10-27T01:39:57.615Z,99161.38
2023-10-27T01:44:59.313Z,99149.44
2023-10-27T01:50:00.884Z,99150.34
2023-10-27T01:55:02.710Z,99159.72
2023-10-27T02:00:04.812Z,99143.16
2023-10-27T02:05:13.949Z,99135.41
2023-10-27T02:10:15.602Z,99137.16
2023-10-27T02:15:17.475Z,99144.69
2023-10-27T02:20:18.993Z,99138.03
2023-10-27T02:25:20.508Z,99145.94
2023-10-27T02:30:22.082Z,99142.03
2023-10-27T02:35:26.596Z,99143.97
2023-10-27T02:40:28.206Z,99136.88
2023-10-27T02:45:30.793Z,99134.91
2023-10-27T02:50:32.558Z,99139.03
2023-10-27T02:55:35.422Z,99136.06
2023-10-27T03:00:42.741Z,99137.25
2023-10-27T03:05:44.267Z,99124.31
2023-10-27T03:10:45.779Z,99125.34
2023-10-27T03:15:47.603Z,99124.09
2023-10-27T03:20:55.051Z,99127.16
2023-10-27T03:25:56.605Z,99113.25
2023-10-27T03:30:58.949Z,99119.59
2023-10-27T03:36:00.533Z,99113.34
2023-10-27T03:41:02.173Z,99107.81
2023-10-27T03:46:03.952Z,99111.19
2023-10-27T03:51:06.522Z,99108.75
2023-10-27T03:56:08.218Z,99105.09
2023-10-27T04:01:10.591Z,99106.75
2023-10-27T04:06:12.768Z,99101.19
2023-10-27T04:11:14.333Z,99095.94
2023-10-27T04:16:15.900Z,99092.91
2023-10-27T04:21:17.492Z,99098.28
2023-10-27T04:26:19.076Z,99090.06
2023-10-27T04:31:21.820Z,99092.88
2023-10-27T04:36:23.477Z,99097.84
2023-10-27T04:41:25.260Z,99088.34
2023-10-27T04:46:27.761Z,99094.50
2023-10-27T04:51:29.426Z,99092.16
2023-10-27T04:56:30.983Z,99089.81
2023-10-27T05:01:32.563Z,99079.75
2023-10-27T05:06:34.861Z,99075.47
2023-10-27T05:11:36.375Z,99078.81
2023-10-27T05:16:37.942Z,99077.00
2023-10-27T05:21:39.486Z,99079.84
2023-10-27T05:26:41.029Z,99076.53
2023-10-27T05:31:43.642Z,99073.53
2023-10-27T05:36:45.248Z,99071.16
2023-10-27T05:41:47.926Z,99073.31
2023-10-27T05:46:49.491Z,99066.00
2023-10-27T05:51:52.278Z,99074.69
2023-10-27T05:56:53.793Z,99075.94
2023-10-27T06:02:06.258Z,99074.00
2023-10-27T06:07:19.283Z,99073.78
2023-10-27T06:12:20.819Z,99076.06
2023-10-27T06:17:22.519Z,99079.25
2023-10-27T06:22:24.043Z,99071.31
2023-10-27T06:27:25.565Z,99077.50
2023-10-27T06:32:27.093Z,99080.44
2023-10-27T06:37:28.755Z,99079.91
2023-10-27T06:42:30.315Z,99083.56
2023-10-27T06:47:31.950Z,99082.03
2023-10-27T06:52:34.753Z,99081.16
2023-10-27T06:57:36.283Z,99081.91
2023-10-27T07:02:50.057Z,99081.06
2023-10-27T07:07:57.657Z,99087.78
2023-10-27T07:12:59.253Z,99084.09
2023-10-27T07:18:00.787Z,99081.41
2023-10-27T07:23:02.328Z,99083.38
2023-10-27T07:28:04.106Z,99085.19
2023-10-27T07:33:06.008Z,99093.59
2023-10-27T07:38:07.604Z,99090.59
2023-10-27T07:43:09.391Z,99091.53
2023-10-27T07:48:10.980Z,99095.16
2023-10-27T07:53:12.867Z,99094.66
2023-10-27T07:58:14.457Z,99090.72
2023-10-27T08:03:16.245Z,99100.16
2023-10-27T08:08:18.641Z,99096.63
2023-10-27T08:13:22.171Z,99098.06
2023-10-27T08:18:23.945Z,99107.91
2023-10-27T08:23:25.472Z,99096.06
2023-10-27T08:28:28.556Z,99104.69
2023-10-27T08:33:30.118Z,99095.47
2023-10-27T08:38:33.460Z,99095.69
2023-10-27T08:43:35.840Z,99099.22
2023-10-27T08:48:37.731Z,99091.44
2023-10-27T08:53:43.808Z,99101.59
2023-10-27T08:58:50.735Z,99097.06
2023-10-27T09:04:13.190Z,99096.59
2023-10-27T09:09:16.003Z,99105.75
2023-10-27T09:14:27.226Z,99109.25
2023-10-27T09:19:29.440Z,99106.44
2023-10-27T09:24:31.301Z,99103.03
2023-10-27T09:29:43.683Z,99104.31
2023-10-27T09:34:45.651Z,99109.03
2023-10-27T09:39:47.274Z,99112.50
2023-10-27T09:45:13.016Z,99117.38
2023-10-27T09:50:16.589Z,99114.91
2023-10-27T09:55:20.398Z,99116.00
2023-10-27T10:00:33.156Z,99123.44
2023-10-27T10:06:14.604Z,99124.03
2023-10-27T10:11:18.731Z,99111.06
2023-10-27T10:16:21.237Z,99125.41
2023-10-27T10:21:33.531Z,99125.16
2023-10-27T10:27:03.729Z,99130.81
2023-10-27T10:32:34.229Z,99130.38
2023-10-27T10:37:35.947Z,99129.84
2023-10-27T10:43:16.141Z,99123.25
2023-10-27T10:48:23.348Z,99129.66
2023-10-27T10:53:27.837Z,99126.41
2023-10-27T10:58:31.607Z,99131.50
2023-10-27T11:03:35.044Z,99130.94
2023-10-27T11:08:38.660Z,99131.28
2023-10-27T11:13:42.518Z,99136.19
2023-10-27T11:18:50.299Z,99136.47
2023-10-27T11:23:52.547Z,99125.28
2023-10-27T11:28:55.821Z,99115.94
2023-10-27T11:34:07.192Z,99123.78
2023-10-27T11:39:15.449Z,99126.28
2023-10-27T11:44:18.358Z,99120.75
2023-10-27T11:49:20.026Z,99128.69
2023-10-27T11:54:23.114Z,99121.44
2023-10-27T11:59:28.112Z,99125.91
2023-10-27T12:04:29.722Z,99135.41
2023-10-27T12:09:31.280Z,99130.34
2023-10-27T12:14:32.806Z,99129.81
2023-10-27T12:19:34.413Z,99136.59
2023-10-27T12:24:35.981Z,99144.47
2023-10-27T12:29:37.523Z,99135.34
2023-10-27T12:34:39.664Z,99135.53
2023-10-27T12:39:43.882Z,99138.44
2023-10-27T12:44:46.519Z,99149.06
2023-10-27T12:49:48.385Z,99138.81
2023-10-27T12:54:50.588Z,99148.44
2023-10-27T12:59:53.168Z,99152.53
2023-10-27T13:04:58.023Z,99155.88
2023-10-27T13:09:59.667Z,99150.97
2023-10-27T13:15:01.338Z,99145.09
2023-10-27T13:20:03.312Z,99145.31
2023-10-27T13:25:08.268Z,99150.91
2023-10-27T13:30:10.000Z,99146.81
2023-10-27T13:35:11.695Z,99146.50
2023-10-27T13:40:15.734Z,99146.94
2023-10-27T13:45:17.578Z,99155.44
2023-10-27T13:50:19.202Z,99147.44
2023-10-27T13:55:20.787Z,99158.91
2023-10-27T14:00:28.469Z,99159.75
2023-10-27T14:05:30.077Z,99162.63
2023-10-27T14:10:31.889Z,99166.34
2023-10-27T14:15:34.436Z,99172.63
2023-10-27T14:20:35.937Z,99173.75
2023-10-27T14:25:37.622Z,99170.59
2023-10-27T14:30:40.905Z,99180.28
2023-10-27T14:35:43.090Z,99177.13
2023-10-27T14:40:56.565Z,99186.59
2023-10-27T14:45:59.689Z,99191.63
2023-10-27T14:51:05.095Z,99192.84
2023-10-27T14:56:11.753Z,99195.41
2023-10-27T15:01:19.450Z,99199.09
2023-10-27T15:06:22.206Z,99189.88
2023-10-27T15:11:23.880Z,99203.28
2023-10-27T15:16:25.536Z,99205.94
2023-10-27T15:21:27.125Z,99214.22
2023-10-27T15:26:28.772Z,99213.00
2023-10-27T15:31:30.468Z,99200.88
2023-10-27T15:36:32.741Z,99199.47
2023-10-27T15:41:36.300Z,99206.81
2023-10-27T15:46:39.384Z,99209.88
2023-10-27T15:51:40.960Z,99223.25
2023-10-27T15:56:42.932Z,99222.69
2023-10-27T16:01:44.588Z,99219.00
2023-10-27T16:06:46.191Z,99225.13
2023-10-27T16:11:47.751Z,99232.09
2023-10-27T16:16:50.401Z,99233.69
2023-10-27T16:21:52.667Z,99232.31
2023-10-27T16:26:54.237Z,99229.53
2023-10-27T16:31:55.841Z,99240.50
2023-10-27T16:36:57.490Z,99230.91
2023-10-27T16:41:59.050Z,99246.44
2023-10-27T16:47:00.546Z,99248.41
2023-10-27T16:52:02.077Z,99251.25
2023-10-27T16:57:03.975Z,99260.03
2023-10-27T17:02:10.779Z,99252.19
2023-10-27T17:07:12.519Z,99252.28
2023-10-27T17:12:14.279Z,99259.56
2023-10-27T17:17:16.303Z,99272.91
2023-10-27T17:22:18.859Z,99276.81
2023-10-27T17:27:21.848Z,99286.94
2023-10-27T17:32:23.400Z,99282.72
2023-10-27T17:37:24.940Z,99291.03
2023-10-27T17:42:27.851Z,99292.38
2023-10-27T17:52:30.866Z,99295.72
2023-10-27T17:57:32.424Z,99297.22
2023-10-27T18:02:34.429Z,99289.16
2023-10-27T18:07:36.231Z,99310.22
2023-10-27T18:12:37.877Z,99299.50
2023-10-27T18:17:39.481Z,99300.44
2023-10-27T18:22:42.607Z,99302.16
2023-10-27T18:27:44.813Z,99295.84
2023-10-27T18:32:46.338Z,99297.38
2023-10-27T18:37:48.284Z,99294.69
2023-10-27T18:42:50.266Z,99292.56
2023-10-27T18:47:54.144Z,99295.25
2023-10-27T18:52:57.338Z,99297.34
2023-10-27T18:57:58.910Z,99302.28
2023-10-27T19:03:00.455Z,99304.69
2023-10-27T19:08:02.010Z,99305.00
2023-10-27T19:13:08.693Z,99312.03
2023-10-27T19:18:10.428Z,99310.69
2023-10-27T19:23:12.014Z,99314.56
2023-10-27T19:28:13.711Z,99331.19
2023-10-27T19:33:15.251Z,99321.13
2023-10-27T19:38:16.908Z,99323.84
2023-10-27T19:43:18.420Z,99327.41
2023-10-27T19:48:20.094Z,99334.41
2023-10-27T19:53:21.638Z,99344.81
2023-10-27T19:58:23.155Z,99350.63
2023-10-27T20:03:24.726Z,99359.09
2023-10-27T20:08:29.607Z,99359.66
2023-10-27T20:13:31.141Z,99365.75
2023-10-27T20:18:32.694Z,99370.16
2023-10-27T20:23:34.239Z,99382.19
2023-10-27T20:28:36.150Z,99384.94
2023-10-27T20:33:37.872Z,99382.78
2023-10-27T20:38:39.390Z,99388.78
2023-10-27T20:43:40.973Z,99385.34
2023-10-27T20:48:42.545Z,99391.34
2023-10-27T20:53:44.087Z,99387.31
2023-10-27T20:58:45.670Z,99381.91
2023-10-27T21:03:49.511Z,99389.13
2023-10-27T21:08:51.986Z,99396.19
2023-10-27T21:13:53.559Z,99396.31
2023-10-27T21:18:55.065Z,99402.75
2023-10-27T21:23:56.753Z,99405.72
2023-10-27T21:28:58.346Z,99404.75
2023-10-27T21:34:00.107Z,99406.41
2023-10-27T21:39:01.646Z,99407.47
2023-10-27T21:44:03.814Z,99408.84
2023-10-27T21:49:05.502Z,99412.44
2023-10-27T21:54:07.316Z,99420.22
2023-10-27T21:59:08.815Z,99418.38
2023-10-27T22:04:20.120Z,99422.88
2023-10-27T22:09:22.800Z,99416.81
2023-10-27T22:14:24.334Z,99413.22
2023-10-27T22:19:26.231Z,99413.25
2023-10-27T22:24:27.746Z,99412.69
2023-10-27T22:29:29.285Z,99417.16
2023-10-27T22:34:30.922Z,99424.78
2023-10-27T22:39:32.636Z,99418.94
2023-10-27T22:44:34.365Z,99417.31
2023-10-27T22:49:35.954Z,99408.75
2023-10-27T22:54:37.610Z,99413.66
2023-10-27T22:59:39.185Z,99420.03
2023-10-27T23:04:40.869Z,99430.75
2023-10-27T23:09:43.163Z,99424.16
2023-10-27T23:14:45.874Z,99421.16
2023-10-27T23:19:51.814Z,99423.88
2023-10-27T23:24:54.618Z,99429.00
2023-10-27T23:29:56.131Z,99432.25
2023-10-27T23:34:57.799Z,99432.41
2023-10-27T23:39:59.399Z,99430.06
2023-10-27T23:45:00.918Z,99440.72
2023-10-27T23:50:02.515Z,99431.59
2023-10-27T23:55:04.467Z,99435.28
